createdAt,value
2022-10-02T00:00:05.057Z,58.04
2022-10-02T00:02:42.599Z,58.40
2022-10-02T00:05:13.351Z,58.21
2022-10-02T00:07:43.501Z,58.20
2022-10-02T00:10:18.983Z,58.11
2022-10-02T00:12:48.230Z,57.98
2022-10-02T00:15:19.374Z,58.35
2022-10-02T00:17:51.503Z,58.14
2022-10-02T00:20:23.614Z,57.93
2022-10-02T00:22:59.211Z,57.60
2022-10-02T00:25:50.797Z,57.51
2022-10-02T00:28:32.049Z,57.64
2022-10-02T00:31:17.132Z,57.66
2022-10-02T00:33:53.175Z,57.55
2022-10-02T00:36:44.301Z,57.30
2022-10-02T00:39:52.084Z,57.86
2022-10-02T00:42:34.296Z,58.10
2022-10-02T00:45:32.582Z,58.09
2022-10-02T00:48:35.234Z,58.25
2022-10-02T00:51:11.023Z,58.48
2022-10-02T00:53:57.218Z,58.81
2022-10-02T00:56:45.876Z,58.85
2022-10-02T00:59:39.647Z,59.15
2022-10-02T01:02:31.121Z,59.27
2022-10-02T01:05:00.832Z,59.04
2022-10-02T01:07:28.214Z,59.32
2022-10-02T01:09:55.615Z,59.28
2022-10-02T01:12:24.118Z,59.76
2022-10-02T01:14:51.385Z,60.14
2022-10-02T01:17:24.889Z,60.49
2022-10-02T01:19:52.668Z,60.39
2022-10-02T01:22:29.366Z,60.34
2022-10-02T01:24:58.575Z,60.40
2022-10-02T01:27:27.222Z,60.75
2022-10-02T01:30:04.788Z,60.54
2022-10-02T01:32:33.797Z,60.96
2022-10-02T01:35:01.650Z,60.96
2022-10-02T01:37:33.000Z,60.74
2022-10-02T01:40:05.659Z,61.23
2022-10-02T01:42:34.386Z,60.89
2022-10-02T01:45:03.493Z,60.54
2022-10-02T01:47:59.884Z,60.84
2022-10-02T01:50:39.772Z,61.26
2022-10-02T01:53:21.500Z,61.89
2022-10-02T01:55:57.657Z,62.22
2022-10-02T01:58:46.931Z,62.23
2022-10-02T02:01:26.113Z,61.97
2022-10-02T02:04:18.598Z,61.29
2022-10-02T02:07:15.488Z,60.74
2022-10-02T02:10:08.173Z,61.27
2022-10-02T02:12:41.284Z,61.09
2022-10-02T02:15:18.813Z,61.10
2022-10-02T02:17:55.650Z,61.03
2022-10-02T02:20:31.250Z,60.96
2022-10-02T02:23:06.735Z,63.36
2022-10-02T02:25:40.081Z,66.46
2022-10-02T02:28:12.675Z,67.15
2022-10-02T02:30:43.473Z,66.86
2022-10-02T02:33:38.558Z,67.51
2022-10-02T02:36:13.597Z,67.26
2022-10-02T02:38:50.960Z,67.56
2022-10-02T02:41:24.378Z,67.60
2022-10-02T02:44:24.774Z,67.54
2022-10-02T02:47:13.368Z,67.59
2022-10-02T02:49:58.908Z,67.39
2022-10-02T02:52:45.525Z,67.48
2022-10-02T02:55:18.423Z,67.98
2022-10-02T02:58:16.460Z,67.22
2022-10-02T03:00:44.635Z,67.34
2022-10-02T03:03:11.749Z,67.11
2022-10-02T03:05:45.782Z,67.09
2022-10-02T03:08:19.178Z,66.41
2022-10-02T03:11:18.641Z,66.17
2022-10-02T03:14:16.432Z,66.01
2022-10-02T03:17:05.811Z,65.76
2022-10-02T03:20:09.524Z,65.50
2022-10-02T03:22:41.507Z,65.12
2022-10-02T03:25:33.761Z,64.91
2022-10-02T03:28:07.823Z,64.59
2022-10-02T03:30:36.903Z,64.52
2022-10-02T03:33:05.764Z,64.48
2022-10-02T03:35:33.954Z,64.63
2022-10-02T03:38:05.481Z,64.80
2022-10-02T03:40:32.619Z,65.09
2022-10-02T03:42:59.755Z,65.06
2022-10-02T03:45:49.872Z,64.85
2022-10-02T03:48:15.785Z,64.62
2022-10-02T03:50:43.173Z,64.53
2022-10-02T03:53:19.341Z,64.42
2022-10-02T03:55:58.081Z,65.05
2022-10-02T03:58:26.213Z,64.58
2022-10-02T04:01:23.294Z,64.75
2022-10-02T04:03:59.416Z,64.96
2022-10-02T04:06:35.965Z,64.85
2022-10-02T04:09:31.889Z,64.64
2022-10-02T04:12:08.363Z,63.60
2022-10-02T04:14:48.038Z,63.69
2022-10-02T04:17:44.159Z,63.65
2022-10-02T04:20:18.884Z,64.28
2022-10-02T04:23:17.608Z,63.95
2022-10-02T04:25:51.149Z,64.24
2022-10-02T04:28:41.667Z,64.51
2022-10-02T04:31:12.276Z,64.49
2022-10-02T04:33:40.537Z,64.77
2022-10-02T04:36:18.359Z,64.54
2022-10-02T04:38:54.761Z,64.39
2022-10-02T04:41:34.545Z,64.56
2022-10-02T04:44:35.842Z,64.75
2022-10-02T04:47:21.116Z,64.67
2022-10-02T04:50:04.766Z,64.57
2022-10-02T04:53:28.547Z,64.42
2022-10-02T04:56:16.879Z,64.27
2022-10-02T04:59:01.954Z,64.15
2022-10-02T05:01:59.205Z,64.09
2022-10-02T05:04:54.302Z,64.26
2022-10-02T05:07:30.273Z,63.60
2022-10-02T05:10:15.598Z,63.18
2022-10-02T05:12:51.707Z,61.02
2022-10-02T05:15:36.037Z,58.09
2022-10-02T05:18:18.075Z,56.67
2022-10-02T05:21:25.688Z,54.87
2022-10-02T05:24:10.676Z,51.39
2022-10-02T05:26:56.366Z,49.06
2022-10-02T05:29:57.408Z,46.73
2022-10-02T05:32:27.650Z,46.14
2022-10-02T05:35:39.640Z,44.78
2022-10-02T05:38:12.759Z,42.63
2022-10-02T05:40:47.956Z,41.08
2022-10-02T05:43:30.049Z,40.78
2022-10-02T05:46:02.556Z,40.08
2022-10-02T05:48:32.876Z,38.80
2022-10-02T05:51:08.133Z,36.94
2022-10-02T05:53:44.593Z,36.24
2022-10-02T05:56:18.799Z,35.97
2022-10-02T05:59:05.749Z,34.68
2022-10-02T06:01:38.652Z,33.58
2022-10-02T06:04:20.067Z,33.89
2022-10-02T06:06:51.877Z,32.40
2022-10-02T06:09:26.564Z,32.73
2022-10-02T06:12:00.176Z,32.40
2022-10-02T06:14:39.770Z,31.27
2022-10-02T06:17:21.651Z,31.16
2022-10-02T06:20:02.849Z,30.01
2022-10-02T06:22:40.171Z,33.43
2022-10-02T06:25:46.328Z,37.56
2022-10-02T06:28:25.478Z,37.69
2022-10-02T06:31:26.214Z,38.84
2022-10-02T06:33:53.646Z,39.33
2022-10-02T06:36:30.376Z,39.14
2022-10-02T06:39:31.400Z,40.97
2022-10-02T06:42:32.704Z,42.20
2022-10-02T06:45:18.195Z,42.99
2022-10-02T06:48:07.835Z,43.47
2022-10-02T06:51:17.341Z,44.54
2022-10-02T06:54:08.709Z,46.54
2022-10-02T06:56:45.553Z,45.88
2022-10-02T06:59:27.701Z,45.55
2022-10-02T07:02:18.739Z,45.99
2022-10-02T07:05:02.873Z,46.46
2022-10-02T07:07:39.108Z,46.05
2022-10-02T07:10:26.692Z,45.09
2022-10-02T07:13:20.005Z,45.81
2022-10-02T07:16:12.881Z,45.56
2022-10-02T07:18:42.972Z,46.09
2022-10-02T07:21:39.598Z,46.97
2022-10-02T07:24:27.865Z,45.69
2022-10-02T07:27:10.452Z,45.88
2022-10-02T07:29:43.358Z,44.72
2022-10-02T07:32:22.470Z,44.29
2022-10-02T07:35:03.271Z,45.71
2022-10-02T07:37:45.986Z,46.87
2022-10-02T07:40:50.836Z,47.53
2022-10-02T07:43:35.899Z,47.42
2022-10-02T07:46:38.765Z,45.38
2022-10-02T07:49:20.524Z,48.31
2022-10-02T07:52:01.296Z,46.67
2022-10-02T07:54:58.674Z,47.27
2022-10-02T07:57:57.032Z,47.10
2022-10-02T08:00:26.812Z,47.06
2022-10-02T08:03:02.839Z,45.91
2022-10-02T08:05:34.486Z,46.37
2022-10-02T08:08:18.643Z,47.36
2022-10-02T08:10:50.226Z,47.29
2022-10-02T08:13:28.626Z,47.58
2022-10-02T08:15:56.729Z,47.17
2022-10-02T08:18:40.919Z,46.80
2022-10-02T08:21:17.422Z,47.48
2022-10-02T08:23:52.745Z,46.98
2022-10-02T08:26:40.225Z,47.70
2022-10-02T08:29:20.232Z,48.14
2022-10-02T08:31:48.804Z,47.27
2022-10-02T08:34:25.526Z,46.12
2022-10-02T08:37:04.664Z,46.38
2022-10-02T08:39:50.864Z,46.80
2022-10-02T08:42:49.882Z,48.88
2022-10-02T08:45:42.083Z,47.79
2022-10-02T08:48:24.201Z,49.87
2022-10-02T08:54:50.740Z,50.38
2022-10-02T08:57:33.373Z,50.98
2022-10-02T09:00:32.308Z,48.77
2022-10-02T09:03:25.257Z,46.95
2022-10-02T09:06:04.387Z,46.61
2022-10-02T09:09:00.768Z,46.66
2022-10-02T09:12:11.543Z,45.23
2022-10-02T09:14:54.573Z,45.11
2022-10-02T09:17:58.953Z,45.26
2022-10-02T09:20:49.171Z,44.71
2022-10-02T09:23:34.874Z,43.66
2022-10-02T09:26:46.214Z,42.01
2022-10-02T09:29:22.265Z,42.44
2022-10-02T09:32:16.025Z,43.27
2022-10-02T09:34:55.285Z,44.34
2022-10-02T09:37:46.733Z,44.75
2022-10-02T09:40:46.733Z,44.97
2022-10-02T09:43:55.760Z,46.58
2022-10-02T09:46:23.038Z,44.87
2022-10-02T09:49:09.245Z,44.07
2022-10-02T09:51:57.704Z,43.91
2022-10-02T09:54:45.890Z,43.92
2022-10-02T09:57:40.869Z,44.48
2022-10-02T10:00:13.971Z,43.72
2022-10-02T10:03:05.812Z,43.64
2022-10-02T10:05:59.113Z,45.51
2022-10-02T10:08:44.614Z,44.38
2022-10-02T10:11:36.524Z,45.13
2022-10-02T10:14:48.437Z,44.32
2022-10-02T10:18:10.895Z,43.80
2022-10-02T10:21:00.648Z,42.31
2022-10-02T10:23:50.637Z,41.51
2022-10-02T10:26:44.330Z,44.72
2022-10-02T10:29:45.506Z,44.84
2022-10-02T10:32:32.956Z,43.83
2022-10-02T10:35:46.988Z,45.46
2022-10-02T10:38:43.088Z,47.05
2022-10-02T10:41:31.638Z,47.89
2022-10-02T10:44:01.327Z,48.18
2022-10-02T10:47:06.830Z,46.52
2022-10-02T10:50:16.118Z,45.76
2022-10-02T10:53:06.364Z,45.25
2022-10-02T10:55:40.561Z,46.48
2022-10-02T10:58:41.245Z,47.07
2022-10-02T11:01:20.335Z,47.77
2022-10-02T11:03:58.451Z,48.67
2022-10-02T11:06:56.535Z,49.06
2022-10-02T11:09:57.211Z,50.96
2022-10-02T11:12:44.174Z,49.50
2022-10-02T11:15:29.951Z,49.50
2022-10-02T11:18:01.013Z,51.61
2022-10-02T11:20:43.015Z,51.35
2022-10-02T11:23:28.109Z,48.55
2022-10-02T11:26:32.603Z,50.19
2022-10-02T11:29:21.333Z,47.99
2022-10-02T11:32:06.820Z,48.37
2022-10-02T11:34:54.944Z,49.38
2022-10-02T11:37:40.698Z,49.69
2022-10-02T11:40:38.252Z,47.99
2022-10-02T11:43:41.869Z,49.86
2022-10-02T11:46:29.357Z,49.67
2022-10-02T11:48:59.588Z,48.81
2022-10-02T11:51:46.519Z,50.33
2022-10-02T11:54:40.424Z,50.33
2022-10-02T11:57:10.997Z,49.86
2022-10-02T11:59:47.493Z,52.07
2022-10-02T12:02:40.706Z,51.12
2022-10-02T12:05:14.101Z,50.96
2022-10-02T12:08:03.697Z,49.91
2022-10-02T12:10:36.697Z,51.04
2022-10-02T12:13:06.385Z,50.97
2022-10-02T12:15:57.665Z,51.30
2022-10-02T12:18:47.901Z,52.02
2022-10-02T12:21:45.777Z,51.58
2022-10-02T12:24:50.338Z,52.91
2022-10-02T12:27:45.701Z,55.04
2022-10-02T12:30:36.345Z,53.00
2022-10-02T12:33:15.804Z,53.54
2022-10-02T12:36:05.679Z,54.49
2022-10-02T12:39:07.605Z,55.25
2022-10-02T12:42:14.004Z,54.66
2022-10-02T12:45:14.895Z,56.38
2022-10-02T12:48:23.454Z,56.56
2022-10-02T12:51:06.080Z,57.46
2022-10-02T12:53:45.361Z,57.90
2022-10-02T12:56:30.610Z,57.38
2022-10-02T12:59:10.864Z,56.68
2022-10-02T13:01:59.944Z,56.32
2022-10-02T13:04:45.966Z,56.41
2022-10-02T13:07:40.158Z,58.35
2022-10-02T13:10:45.954Z,57.41
2022-10-02T13:13:47.385Z,59.70
2022-10-02T13:16:26.416Z,58.16
2022-10-02T13:19:02.474Z,57.96
2022-10-02T13:22:18.270Z,59.29
2022-10-02T13:25:00.577Z,56.44
2022-10-02T13:28:04.898Z,59.56
2022-10-02T13:30:40.185Z,57.67
2022-10-02T13:33:23.337Z,55.17
2022-10-02T13:36:08.989Z,56.63
2022-10-02T13:38:54.240Z,57.78
2022-10-02T13:41:30.233Z,56.85
2022-10-02T13:44:13.207Z,55.46
2022-10-02T13:46:46.359Z,56.16
2022-10-02T13:49:27.185Z,55.27
2022-10-02T13:51:57.921Z,55.85
2022-10-02T13:54:50.394Z,55.43
2022-10-02T13:57:35.934Z,55.67
2022-10-02T14:00:38.410Z,56.51
2022-10-02T14:03:31.671Z,57.32
2022-10-02T14:06:01.953Z,57.57
2022-10-02T14:08:54.117Z,57.97
2022-10-02T14:11:30.962Z,58.47
2022-10-02T14:14:36.123Z,58.01
2022-10-02T14:17:32.401Z,59.25
2022-10-02T14:20:15.074Z,60.03
2022-10-02T14:23:09.946Z,60.53
2022-10-02T14:25:48.843Z,58.83
2022-10-02T14:28:21.692Z,58.96
2022-10-02T14:31:08.236Z,59.03
2022-10-02T14:34:03.505Z,58.38
2022-10-02T14:36:37.596Z,58.34
2022-10-02T14:39:13.892Z,59.89
2022-10-02T14:42:00.997Z,58.74
2022-10-02T14:44:46.837Z,58.51
2022-10-02T14:47:35.584Z,58.80
2022-10-02T14:50:16.410Z,58.59
2022-10-02T14:53:09.735Z,59.28
2022-10-02T14:55:51.732Z,59.89
2022-10-02T14:58:52.827Z,59.85
2022-10-02T15:01:29.035Z,60.25
2022-10-02T15:04:22.182Z,61.08
2022-10-02T15:07:19.894Z,61.97
2022-10-02T15:09:59.015Z,60.93
2022-10-02T15:12:43.882Z,60.75
2022-10-02T15:15:18.544Z,61.76
2022-10-02T15:17:57.597Z,61.32
2022-10-02T15:20:59.520Z,61.56
2022-10-02T15:23:46.143Z,62.46
2022-10-02T15:26:13.484Z,63.59
2022-10-02T15:29:02.362Z,64.29
2022-10-02T15:31:55.812Z,66.85
2022-10-02T15:34:30.325Z,68.00
2022-10-02T15:37:23.289Z,68.78
2022-10-02T15:40:32.484Z,69.25
2022-10-02T15:43:05.770Z,69.36
2022-10-02T15:45:47.818Z,69.60
2022-10-02T15:48:52.633Z,70.03
2022-10-02T15:51:46.395Z,69.63
2022-10-02T15:54:25.489Z,71.35
2022-10-02T15:57:08.713Z,72.68
2022-10-02T15:59:35.888Z,73.08
2022-10-02T16:02:27.663Z,71.76
2022-10-02T16:05:03.133Z,71.20
2022-10-02T16:08:02.882Z,69.74
2022-10-02T16:10:41.944Z,69.20
2022-10-02T16:13:28.549Z,68.95
2022-10-02T16:16:26.348Z,69.31
2022-10-02T16:19:33.234Z,70.52
2022-10-02T16:22:00.256Z,71.54
2022-10-02T16:25:06.698Z,72.06
2022-10-02T16:31:17.695Z,72.22
2022-10-02T16:33:47.872Z,72.39
2022-10-02T16:36:30.252Z,72.34
2022-10-02T16:39:20.374Z,71.62
2022-10-02T16:42:02.191Z,71.54
2022-10-02T16:44:56.609Z,71.61
2022-10-02T16:47:29.294Z,71.16
2022-10-02T16:50:05.400Z,70.97
2022-10-02T16:52:56.225Z,71.47
2022-10-02T16:55:44.148Z,71.55
2022-10-02T16:58:32.351Z,71.48
2022-10-02T17:01:24.021Z,70.97
2022-10-02T17:04:23.364Z,70.23
2022-10-02T17:07:15.076Z,69.43
2022-10-02T17:09:45.473Z,69.04
2022-10-02T17:12:26.206Z,68.50
2022-10-02T17:15:22.521Z,68.65
2022-10-02T17:18:09.210Z,68.94
2022-10-02T17:20:55.256Z,68.83
2022-10-02T17:23:45.737Z,67.76
2022-10-02T17:26:28.617Z,67.14
2022-10-02T17:29:14.806Z,67.17
2022-10-02T17:31:54.044Z,67.33
2022-10-02T17:34:26.419Z,67.46
2022-10-02T17:37:02.524Z,67.69
2022-10-02T17:39:42.189Z,67.88
2022-10-02T17:42:42.818Z,67.93
2022-10-02T17:45:26.532Z,68.23
2022-10-02T17:48:24.124Z,68.30
2022-10-02T17:51:14.176Z,68.96
2022-10-02T17:54:41.224Z,69.01
2022-10-02T17:57:24.762Z,68.96
2022-10-02T18:00:10.702Z,69.07
2022-10-02T18:02:45.974Z,69.17
2022-10-02T18:05:28.498Z,68.72
2022-10-02T18:08:46.540Z,68.43
2022-10-02T18:11:34.914Z,68.65
2022-10-02T18:14:39.510Z,68.92
2022-10-02T18:17:31.385Z,68.93
2022-10-02T18:20:19.753Z,68.61
2022-10-02T18:22:49.890Z,68.41
2022-10-02T18:25:42.015Z,68.08
2022-10-02T18:28:41.590Z,67.79
2022-10-02T18:31:51.000Z,68.03
2022-10-02T18:34:43.642Z,68.77
2022-10-02T18:37:28.163Z,68.55
2022-10-02T18:40:02.017Z,68.68
2022-10-02T18:42:47.137Z,68.91
2022-10-02T18:45:27.410Z,68.55
2022-10-02T18:48:11.197Z,68.48
2022-10-02T18:50:47.410Z,68.35
2022-10-02T18:53:50.011Z,68.45
2022-10-02T18:56:45.752Z,68.04
2022-10-02T18:59:22.320Z,68.16
2022-10-02T19:01:55.537Z,67.58
2022-10-02T19:04:54.971Z,66.80
2022-10-02T19:07:30.151Z,66.61
2022-10-02T19:10:21.519Z,66.70
2022-10-02T19:12:53.999Z,66.64
2022-10-02T19:15:29.436Z,65.82
2022-10-02T19:18:07.694Z,65.63
2022-10-02T19:20:42.777Z,65.71
2022-10-02T19:23:19.298Z,65.61
2022-10-02T19:25:48.195Z,65.63
2022-10-02T19:28:25.602Z,65.53
2022-10-02T19:31:06.801Z,65.65
2022-10-02T19:33:51.370Z,65.32
2022-10-02T19:36:22.789Z,65.12
2022-10-02T19:39:01.749Z,65.44
2022-10-02T19:41:35.973Z,64.90
2022-10-02T19:44:14.523Z,64.91
2022-10-02T19:46:45.364Z,64.15
2022-10-02T19:49:31.181Z,64.20
2022-10-02T19:51:58.627Z,63.82
2022-10-02T19:54:38.436Z,63.92
2022-10-02T19:57:16.059Z,63.65
2022-10-02T19:59:48.671Z,63.32
2022-10-02T20:02:23.649Z,63.31
2022-10-02T20:04:57.190Z,63.23
2022-10-02T20:07:28.057Z,63.36
2022-10-02T20:10:00.169Z,63.31
2022-10-02T20:12:32.453Z,63.53
2022-10-02T20:15:09.390Z,63.53
2022-10-02T20:17:37.794Z,63.98
2022-10-02T20:20:11.896Z,63.75
2022-10-02T20:22:48.548Z,63.51
2022-10-02T20:25:29.120Z,63.78
2022-10-02T20:28:24.316Z,63.72
2022-10-02T20:31:01.454Z,63.89
2022-10-02T20:33:40.240Z,63.73
2022-10-02T20:36:14.861Z,64.02
2022-10-02T20:38:59.706Z,64.17
2022-10-02T20:41:36.733Z,64.46
2022-10-02T20:44:06.626Z,64.40
2022-10-02T20:47:24.746Z,64.86
2022-10-02T20:50:04.073Z,64.75
2022-10-02T20:52:55.997Z,64.87
2022-10-02T20:55:34.942Z,65.00
2022-10-02T20:58:14.228Z,64.88
2022-10-02T21:01:19.175Z,64.79
2022-10-02T21:04:32.216Z,64.51
2022-10-02T21:07:21.087Z,64.31
2022-10-02T21:10:03.177Z,64.55
2022-10-02T21:12:55.196Z,64.66
2022-10-02T21:15:42.193Z,64.57
2022-10-02T21:18:09.288Z,64.63
2022-10-02T21:23:44.843Z,64.59
2022-10-02T21:26:11.983Z,64.44
2022-10-02T21:29:00.381Z,64.52
2022-10-02T21:31:46.259Z,64.40
2022-10-02T21:34:46.906Z,64.30
2022-10-02T21:37:34.871Z,63.97
2022-10-02T21:40:42.741Z,63.99
2022-10-02T21:43:40.172Z,64.04
2022-10-02T21:46:26.035Z,64.07
2022-10-02T21:49:14.750Z,64.09
2022-10-02T21:52:18.421Z,64.03
2022-10-02T21:54:48.179Z,64.36
2022-10-02T21:57:18.225Z,64.31
2022-10-02T22:00:14.073Z,64.33
2022-10-02T22:02:51.669Z,64.45
2022-10-02T22:05:21.780Z,64.42
2022-10-02T22:08:18.305Z,64.49
2022-10-02T22:10:55.941Z,65.25
2022-10-02T22:13:38.127Z,65.21
2022-10-02T22:16:27.095Z,65.49
2022-10-02T22:19:40.413Z,65.80
2022-10-02T22:22:32.289Z,66.09
2022-10-02T22:25:28.334Z,66.28
2022-10-02T22:28:36.862Z,66.23
2022-10-02T22:31:22.502Z,66.81
2022-10-02T22:34:08.381Z,66.80
2022-10-02T22:37:16.074Z,66.64
2022-10-02T22:39:49.218Z,67.18
2022-10-02T22:42:39.261Z,67.43
2022-10-02T22:45:31.414Z,67.47
2022-10-02T22:48:05.298Z,67.24
2022-10-02T22:50:48.213Z,67.71
2022-10-02T22:53:34.676Z,67.64
2022-10-02T22:56:01.922Z,67.85
2022-10-02T22:58:54.007Z,67.78
2022-10-02T23:01:40.199Z,68.16
2022-10-02T23:04:19.322Z,68.00
2022-10-02T23:06:52.771Z,68.08
2022-10-02T23:09:27.905Z,68.37
2022-10-02T23:12:41.085Z,68.23
2022-10-02T23:15:50.675Z,68.11
2022-10-02T23:18:29.009Z,68.18
2022-10-02T23:21:23.470Z,68.33
2022-10-02T23:24:12.462Z,68.49
2022-10-02T23:26:49.198Z,68.85
2022-10-02T23:29:48.287Z,68.48
2022-10-02T23:32:27.165Z,68.18
2022-10-02T23:34:59.979Z,68.18
2022-10-02T23:37:56.304Z,68.01
2022-10-02T23:40:56.463Z,68.11
2022-10-02T23:43:31.476Z,67.93
2022-10-02T23:46:15.069Z,68.19
2022-10-02T23:48:43.176Z,68.03
2022-10-02T23:51:23.418Z,68.54
2022-10-02T23:54:01.440Z,68.56
2022-10-02T23:56:34.814Z,68.30
2022-10-02T23:59:30.691Z,68.21
